Time;durP1;ratioP1;P1;durP2;ratioP2;P2;SDS_P1;SDS_P2;PMS_P1;PMS_P2;Temp;Humidity;BMP_temperature;BMP_pressure;BME280_temperature;BME280_humidity;BME280_pressure;Samples;Min_cycle;Max_cycle;Signal;HPM_P1;HPM_P2
2022/03/11 00:01:52;;;;;;;19.80;9.90;;;8.90;90.60;;;;;;5043403;28;20064;-64
2022/03/11 00:04:19;;;;;;;18.02;10.90;;;8.70;91.40;;;;;;5033310;28;20045;-64
2022/03/11 00:06:44;;;;;;;14.40;10.75;;;8.70;92.20;;;;;;5041662;28;20041;-64
2022/03/11 00:09:10;;;;;;;11.98;9.32;;;8.60;91.20;;;;;;5048974;28;20045;-64
2022/03/11 00:11:35;;;;;;;14.90;9.63;;;8.60;91.40;;;;;;5046936;28;20041;-64
2022/03/11 00:14:01;;;;;;;17.05;10.30;;;8.50;91.20;;;;;;5037334;28;20056;-64
2022/03/11 00:16:27;;;;;;;14.30;11.25;;;8.50;91.80;;;;;;5033575;28;20179;-64
2022/03/11 00:18:53;;;;;;;12.52;9.25;;;8.50;92.10;;;;;;5029743;28;20394;-64
2022/03/11 00:21:18;;;;;;;18.02;10.90;;;8.50;93.10;;;;;;5029880;28;20064;-64
2022/03/11 00:23:44;;;;;;;15.27;11.63;;;8.40;91.80;;;;;;5035651;28;20034;-64
2022/03/11 00:26:10;;;;;;;14.00;9.68;;;8.50;91.90;;;;;;5036588;28;20041;-63
2022/03/11 00:28:38;;;;;;;16.77;10.82;;;8.50;93.30;;;;;;5042382;28;20045;-64
2022/03/11 00:31:05;;;;;;;18.83;10.90;;;8.50;91.80;;;;;;5043449;28;20040;-64
2022/03/11 00:33:31;;;;;;;14.20;10.30;;;8.40;92.50;;;;;;5030965;28;20182;-64
2022/03/11 00:35:58;;;;;;;17.30;10.77;;;8.40;93.10;;;;;;5029448;28;20621;-64
2022/03/11 00:38:23;;;;;;;16.77;10.48;;;8.30;92.00;;;;;;5046731;28;20316;-64
2022/03/11 00:40:51;;;;;;;18.40;10.18;;;8.30;92.20;;;;;;5045921;28;20102;-64
2022/03/11 00:43:17;;;;;;;21.25;11.25;;;8.30;92.00;;;;;;5042392;28;20064;-64
2022/03/11 00:45:43;;;;;;;12.70;9.27;;;8.40;94.00;;;;;;5036297;28;20718;-64
2022/03/11 00:48:09;;;;;;;18.70;11.30;;;8.40;93.90;;;;;;5034540;28;20045;-64
2022/03/11 00:50:35;;;;;;;16.63;11.50;;;8.40;92.60;;;;;;5041471;28;20029;-64
2022/03/11 00:53:02;;;;;;;16.58;9.93;;;8.30;92.20;;;;;;5037850;28;20103;-64
2022/03/11 00:55:28;;;;;;;20.25;10.55;;;8.30;92.80;;;;;;5035953;28;20045;-64
2022/03/11 00:57:53;;;;;;;17.80;11.52;;;8.30;94.30;;;;;;5030451;28;20485;-64
2022/03/11 01:00:19;;;;;;;12.68;9.88;;;8.20;92.90;;;;;;5035286;28;20052;-64
2022/03/11 01:02:45;;;;;;;16.85;10.57;;;8.10;93.80;;;;;;5042811;28;20048;-64
2022/03/11 01:05:11;;;;;;;17.02;11.70;;;8.20;93.40;;;;;;5032168;28;20037;-64
2022/03/11 01:07:37;;;;;;;16.58;11.02;;;8.10;93.30;;;;;;5040859;28;20057;-64
2022/03/11 01:10:04;;;;;;;15.68;10.63;;;8.10;94.90;;;;;;5030519;28;20084;-64
2022/03/11 01:12:29;;;;;;;22.25;11.85;;;8.00;92.60;;;;;;5041380;28;20036;-64
2022/03/11 01:14:55;;;;;;;21.63;11.05;;;8.00;94.30;;;;;;5032908;28;20375;-64
2022/03/11 01:17:21;;;;;;;16.88;10.13;;;7.90;93.60;;;;;;5030739;28;20049;-64
2022/03/11 01:19:46;;;;;;;14.85;11.00;;;7.80;95.00;;;;;;5048129;28;20045;-63
2022/03/11 01:22:12;;;;;;;18.38;11.32;;;7.90;94.00;;;;;;5038440;28;20048;-64
2022/03/11 01:24:37;;;;;;;15.00;9.65;;;7.90;94.20;;;;;;5038507;28;20099;-63
2022/03/11 01:27:03;;;;;;;15.65;11.30;;;8.00;95.20;;;;;;5047566;28;20037;-64
2022/03/11 01:29:29;;;;;;;19.15;10.98;;;7.90;94.90;;;;;;5028705;28;20053;-64
2022/03/11 01:31:56;;;;;;;15.70;10.60;;;8.00;94.20;;;;;;5047978;28;20091;-64
2022/03/11 01:34:21;;;;;;;16.60;10.88;;;8.00;93.80;;;;;;5040568;28;20073;-64
2022/03/11 01:36:47;;;;;;;14.55;9.80;;;8.00;94.90;;;;;;5034583;28;20699;-64
2022/03/11 01:39:13;;;;;;;15.80;11.15;;;7.90;94.80;;;;;;5035355;28;20045;-64
2022/03/11 01:41:39;;;;;;;17.85;11.77;;;7.90;94.70;;;;;;5043091;28;20049;-64
2022/03/11 01:44:07;;;;;;;13.68;10.63;;;7.80;94.70;;;;;;5039444;28;20041;-64
2022/03/11 01:46:33;;;;;;;20.83;9.45;;;7.80;94.60;;;;;;5033549;28;20068;-64
2022/03/11 01:49:00;;;;;;;17.00;10.80;;;7.70;95.00;;;;;;5031744;28;20071;-64
2022/03/11 01:51:27;;;;;;;15.85;9.75;;;7.80;94.60;;;;;;5031935;28;20413;-64
2022/03/11 01:53:54;;;;;;;17.05;10.30;;;7.80;95.40;;;;;;5046110;28;20041;-64
2022/03/11 01:56:21;;;;;;;17.95;10.07;;;7.80;95.40;;;;;;5042711;28;20469;-64
2022/03/11 01:58:52;;;;;;;15.50;9.98;;;7.70;94.60;;;;;;5043480;28;20381;-63
2022/03/11 02:01:21;;;;;;;13.57;9.68;;;7.70;94.50;;;;;;5038862;28;20103;-64
2022/03/11 02:03:47;;;;;;;12.52;9.50;;;7.70;95.30;;;;;;5051470;28;20045;-64
2022/03/11 02:06:14;;;;;;;13.55;9.65;;;7.60;94.70;;;;;;5044397;28;20037;-63
2022/03/11 02:08:41;;;;;;;12.90;9.68;;;7.70;94.90;;;;;;5036544;28;20133;-64
2022/03/11 02:11:07;;;;;;;13.32;8.95;;;7.70;94.80;;;;;;5034022;28;20100;-64
2022/03/11 02:13:48;;;;;;;21.02;10.75;;;7.60;95.00;;;;;;5036497;28;20076;-64
2022/03/11 02:16:22;;;;;;;13.48;9.65;;;7.60;94.40;;;;;;5049423;28;20396;-64
2022/03/11 02:18:47;;;;;;;14.45;9.55;;;7.60;95.60;;;;;;5042583;28;20060;-64
2022/03/11 02:21:15;;;;;;;18.42;10.70;;;7.50;95.40;;;;;;5036419;28;20053;-64
2022/03/11 02:23:52;;;;;;;12.40;9.18;;;7.50;95.20;;;;;;5033707;28;20076;-64
2022/03/11 02:26:19;;;;;;;12.73;8.95;;;7.50;95.40;;;;;;5040003;28;20451;-64
2022/03/11 02:28:46;;;;;;;13.30;9.07;;;7.40;95.80;;;;;;5033725;28;20056;-64
2022/03/11 02:31:11;;;;;;;15.48;8.95;;;7.40;96.00;;;;;;5044402;28;20128;-64
2022/03/11 02:33:38;;;;;;;16.63;9.45;;;7.40;96.60;;;;;;5046151;28;20120;-63
2022/03/11 02:36:04;;;;;;;18.67;8.90;;;7.40;96.10;;;;;;5029881;28;20081;-64
2022/03/11 02:38:30;;;;;;;15.70;9.40;;;7.20;95.90;;;;;;5038192;28;20045;-64
2022/03/11 02:40:56;;;;;;;13.18;8.82;;;7.30;95.90;;;;;;5039193;28;20546;-64
2022/03/11 02:43:22;;;;;;;13.48;8.50;;;7.20;96.80;;;;;;5047068;28;20044;-64
2022/03/11 02:45:48;;;;;;;12.57;9.68;;;7.20;96.90;;;;;;5037662;28;20060;-66
2022/03/11 02:48:13;;;;;;;15.52;8.80;;;7.30;96.80;;;;;;5036295;28;20057;-66
2022/03/11 02:50:39;;;;;;;14.75;9.63;;;7.10;97.10;;;;;;5038225;28;20045;-66
2022/03/11 02:53:05;;;;;;;13.73;9.68;;;7.20;98.20;;;;;;5037948;28;20080;-66
2022/03/11 02:55:31;;;;;;;14.57;8.55;;;7.20;96.80;;;;;;5042778;28;20128;-66
2022/03/11 02:57:56;;;;;;;13.65;8.27;;;7.10;98.00;;;;;;5039256;28;20538;-66
2022/03/11 03:00:22;;;;;;;14.07;9.25;;;7.10;97.90;;;;;;5040679;28;20045;-66
2022/03/11 03:02:48;;;;;;;14.50;9.82;;;7.00;97.60;;;;;;5033855;28;20052;-66
2022/03/11 03:05:13;;;;;;;14.73;8.63;;;7.10;98.00;;;;;;5048726;28;20041;-66
2022/03/11 03:07:39;;;;;;;12.70;8.80;;;7.00;98.50;;;;;;5038024;28;20357;-66
2022/03/11 03:10:06;;;;;;;12.90;8.85;;;7.00;98.30;;;;;;5039395;28;20056;-65
2022/03/11 03:12:32;;;;;;;12.20;9.13;;;6.90;98.30;;;;;;5049552;28;20040;-66
2022/03/11 03:14:58;;;;;;;10.82;8.55;;;7.00;98.20;;;;;;5047856;28;20041;-66
2022/03/11 03:17:23;;;;;;;14.25;8.55;;;7.00;98.70;;;;;;5027522;28;20049;-65
2022/03/11 03:19:50;;;;;;;13.48;8.40;;;7.10;99.10;;;;;;5038781;28;20044;-65
2022/03/11 03:22:16;;;;;;;12.80;8.65;;;7.10;99.60;;;;;;5033847;28;20045;-65
2022/03/11 03:24:42;;;;;;;11.52;9.07;;;7.00;98.40;;;;;;5032208;28;20045;-65
2022/03/11 03:27:09;;;;;;;14.80;9.40;;;7.00;99.30;;;;;;5036213;28;20072;-66
2022/03/11 03:29:35;;;;;;;15.52;9.73;;;6.90;99.10;;;;;;5033363;28;20396;-66
2022/03/11 03:32:00;;;;;;;13.13;8.52;;;6.90;99.80;;;;;;5031696;28;20050;-65
2022/03/11 03:34:34;;;;;;;12.02;8.98;;;6.90;99.90;;;;;;5030781;28;20049;-65
2022/03/11 03:37:02;;;;;;;11.50;7.93;;;7.00;99.60;;;;;;5028428;28;20589;-66
2022/03/11 03:39:28;;;;;;;23.25;10.00;;;6.90;99.90;;;;;;5048259;28;20037;-65
2022/03/11 03:41:55;;;;;;;17.80;9.82;;;6.80;99.80;;;;;;5050167;28;20072;-66
2022/03/11 03:44:22;;;;;;;14.60;9.10;;;6.70;99.90;;;;;;5043185;28;20038;-65
2022/03/11 03:46:47;;;;;;;15.15;9.18;;;6.80;99.90;;;;;;5030099;28;20127;-66
2022/03/11 03:49:13;;;;;;;12.48;9.10;;;6.80;99.90;;;;;;5036641;28;20072;-66
2022/03/11 03:51:39;;;;;;;19.20;10.43;;;6.80;99.90;;;;;;5046855;28;20056;-66
2022/03/11 03:54:06;;;;;;;22.10;10.68;;;6.70;99.90;;;;;;5047619;28;20420;-64
2022/03/11 03:56:36;;;;;;;13.52;9.27;;;6.70;99.90;;;;;;5036165;28;20056;-64
2022/03/11 03:59:04;;;;;;;13.13;9.88;;;6.70;99.90;;;;;;5041085;28;20123;-64
2022/03/11 04:01:35;;;;;;;16.85;9.93;;;6.60;99.90;;;;;;5048151;28;20076;-64
2022/03/11 04:04:03;;;;;;;14.38;10.38;;;6.60;99.90;;;;;;5034294;28;20053;-64
2022/03/11 04:06:32;;;;;;;16.65;9.63;;;6.60;99.90;;;;;;5039086;28;20553;-63
2022/03/11 04:08:58;;;;;;;14.90;9.88;;;6.60;99.90;;;;;;5043535;28;20088;-64
2022/03/11 04:11:25;;;;;;;17.23;10.02;;;6.60;99.90;;;;;;5036855;28;20056;-64
2022/03/11 04:13:51;;;;;;;16.67;10.25;;;6.60;99.90;;;;;;5044852;28;20056;-64
2022/03/11 04:16:18;;;;;;;15.95;10.13;;;6.50;99.90;;;;;;5038480;28;20045;-64
2022/03/11 04:18:44;;;;;;;14.35;10.00;;;6.50;99.90;;;;;;5041973;28;20508;-64
2022/03/11 04:21:10;;;;;;;19.13;11.25;;;6.50;99.90;;;;;;5048235;28;20041;-64
2022/03/11 04:23:35;;;;;;;17.30;11.15;;;6.40;99.90;;;;;;5038399;28;20045;-64
2022/03/11 04:26:02;;;;;;;18.67;11.35;;;6.40;99.90;;;;;;5028875;28;20112;-64
2022/03/11 04:28:27;;;;;;;18.70;11.93;;;6.50;99.90;;;;;;5040779;28;20404;-64
2022/03/11 04:30:53;;;;;;;15.50;9.98;;;6.40;99.90;;;;;;5047281;28;20049;-64
2022/03/11 04:33:19;;;;;;;19.35;11.65;;;6.40;99.90;;;;;;5031486;28;20084;-64
2022/03/11 04:35:44;;;;;;;17.38;10.02;;;6.40;99.90;;;;;;5032386;28;20128;-64
2022/03/11 04:38:10;;;;;;;25.20;11.73;;;6.30;99.90;;;;;;5031782;28;20043;-64
2022/03/11 04:40:36;;;;;;;20.40;11.75;;;6.30;99.90;;;;;;5040032;28;20452;-64
2022/03/11 04:43:02;;;;;;;23.15;12.30;;;6.20;99.90;;;;;;5032061;28;20130;-64
2022/03/11 04:45:28;;;;;;;17.27;10.60;;;6.30;99.90;;;;;;5026699;28;20507;-64
2022/03/11 04:47:54;;;;;;;17.98;12.35;;;6.30;99.90;;;;;;5044064;28;20619;-64
2022/03/11 04:50:19;;;;;;;15.93;10.50;;;6.30;99.90;;;;;;5047553;28;20087;-64
2022/03/11 04:52:45;;;;;;;18.20;11.85;;;6.40;99.90;;;;;;5042939;28;20042;-64
2022/03/11 04:55:10;;;;;;;18.40;11.35;;;6.30;99.90;;;;;;5031119;28;20037;-63
2022/03/11 04:57:36;;;;;;;17.15;11.02;;;6.20;99.90;;;;;;5046289;28;20045;-63
2022/03/11 05:00:03;;;;;;;17.15;12.13;;;6.30;99.90;;;;;;5031555;28;20100;-63
2022/03/11 05:02:29;;;;;;;21.38;12.25;;;6.30;99.90;;;;;;5042404;28;20040;-64
2022/03/11 05:04:55;;;;;;;17.30;11.75;;;6.30;99.90;;;;;;5048249;28;20683;-63
2022/03/11 05:07:22;;;;;;;21.95;12.48;;;6.30;99.90;;;;;;5038076;28;20059;-64
2022/03/11 05:09:48;;;;;;;23.35;12.35;;;6.20;99.90;;;;;;5027644;28;20049;-63
2022/03/11 05:12:13;;;;;;;20.33;11.98;;;6.20;99.90;;;;;;5029390;28;20045;-63
2022/03/11 05:14:39;;;;;;;19.10;12.82;;;6.20;99.90;;;;;;5038851;28;20071;-63
2022/03/11 05:17:05;;;;;;;18.17;12.32;;;6.00;99.90;;;;;;5034394;28;20072;-64
2022/03/11 05:19:31;;;;;;;21.77;13.05;;;6.10;99.90;;;;;;5033564;28;20044;-64
2022/03/11 05:21:56;;;;;;;19.15;13.10;;;6.10;99.90;;;;;;5045544;28;20037;-63
2022/03/11 05:24:22;;;;;;;19.55;12.93;;;6.00;99.90;;;;;;5033920;28;20053;-64
2022/03/11 05:26:48;;;;;;;20.42;13.20;;;6.00;99.90;;;;;;5031147;28;20065;-64
2022/03/11 05:29:15;;;;;;;20.88;11.68;;;6.00;99.90;;;;;;5031011;28;20103;-63
2022/03/11 05:31:41;;;;;;;18.70;12.90;;;6.00;99.90;;;;;;5028621;28;20050;-63
2022/03/11 05:34:07;;;;;;;21.15;13.18;;;6.10;99.90;;;;;;5035855;28;20037;-63
2022/03/11 05:36:35;;;;;;;23.75;12.70;;;6.10;99.90;;;;;;5040391;28;20124;-63
2022/03/11 05:39:00;;;;;;;19.17;13.80;;;6.10;99.90;;;;;;5028836;28;20084;-63
2022/03/11 05:41:27;;;;;;;21.25;14.27;;;6.10;99.90;;;;;;5041256;28;20085;-64
2022/03/11 05:43:53;;;;;;;21.30;14.38;;;6.00;99.90;;;;;;5045428;28;20495;-63
2022/03/11 05:46:19;;;;;;;20.58;13.57;;;6.00;99.90;;;;;;5038464;28;20041;-63
2022/03/11 05:48:44;;;;;;;21.15;13.77;;;5.90;99.90;;;;;;5042328;28;20041;-63
2022/03/11 05:51:10;;;;;;;22.13;13.93;;;5.80;99.90;;;;;;5039121;28;20073;-63
2022/03/11 05:53:35;;;;;;;22.15;13.40;;;5.90;99.90;;;;;;5039096;28;20037;-63
2022/03/11 05:56:01;;;;;;;23.25;15.13;;;5.90;99.90;;;;;;5047420;28;20090;-64
2022/03/11 05:58:27;;;;;;;22.35;14.45;;;5.80;99.90;;;;;;5038937;28;20068;-64
2022/03/11 06:00:52;;;;;;;22.65;14.82;;;5.80;99.90;;;;;;5041075;28;20088;-63
2022/03/11 06:03:18;;;;;;;22.77;14.32;;;5.80;99.90;;;;;;5040982;28;20033;-64
2022/03/11 06:05:43;;;;;;;21.10;13.32;;;5.80;99.90;;;;;;5032125;28;20106;-63
2022/03/11 06:08:09;;;;;;;24.83;15.57;;;5.80;99.90;;;;;;5044560;28;20040;-63
2022/03/11 06:10:34;;;;;;;24.02;16.05;;;5.70;99.90;;;;;;5046950;28;20041;-63
2022/03/11 06:13:00;;;;;;;24.42;15.18;;;5.70;99.90;;;;;;5045716;28;20090;-64
2022/03/11 06:15:25;;;;;;;21.65;15.20;;;5.80;99.90;;;;;;5031697;28;20056;-64
2022/03/11 06:17:51;;;;;;;20.23;14.07;;;5.80;99.90;;;;;;5042670;28;20072;-64
2022/03/11 06:20:16;;;;;;;22.48;15.57;;;5.70;99.90;;;;;;5030045;28;20068;-64
2022/03/11 06:22:50;;;;;;;21.42;13.93;;;5.70;99.90;;;;;;5027863;28;20131;-63
2022/03/11 06:25:19;;;;;;;34.40;19.52;;;5.80;99.90;;;;;;5049325;28;20045;-64
2022/03/11 06:27:45;;;;;;;31.13;20.98;;;5.60;99.90;;;;;;5045316;28;20046;-64
2022/03/11 06:30:12;;;;;;;25.88;18.50;;;5.60;99.90;;;;;;5036390;28;20481;-63
2022/03/11 06:32:48;;;;;;;23.65;15.95;;;5.60;99.90;;;;;;5040034;28;20049;-64
2022/03/11 06:35:15;;;;;;;21.52;15.57;;;5.60;99.90;;;;;;5037048;28;20481;-63
2022/03/11 06:37:45;;;;;;;24.25;17.17;;;5.70;99.90;;;;;;5044191;28;20497;-63
2022/03/11 06:40:12;;;;;;;23.88;16.90;;;5.70;99.90;;;;;;5034868;28;20049;-63
2022/03/11 06:42:39;;;;;;;27.80;18.73;;;5.60;99.90;;;;;;5050507;28;20044;-64
2022/03/11 06:45:06;;;;;;;21.08;15.25;;;5.70;99.90;;;;;;5044026;28;20041;-63
2022/03/11 06:47:32;;;;;;;22.60;16.35;;;5.70;99.90;;;;;;5028718;28;20370;-64
2022/03/11 06:49:58;;;;;;;24.30;18.17;;;5.80;99.90;;;;;;5040373;28;20079;-65
2022/03/11 06:52:23;;;;;;;26.15;18.92;;;5.70;99.90;;;;;;5035074;28;20766;-65
2022/03/11 06:54:49;;;;;;;26.73;17.40;;;5.90;99.90;;;;;;5038035;28;20164;-65
2022/03/11 06:57:17;;;;;;;34.42;22.05;;;5.90;99.90;;;;;;5035746;28;20056;-64
2022/03/11 06:59:47;;;;;;;33.53;22.52;;;6.00;99.90;;;;;;5041705;28;20140;-64
2022/03/11 07:02:13;;;;;;;24.17;17.55;;;6.00;99.90;;;;;;5039828;28;20037;-65
2022/03/11 07:04:38;;;;;;;26.23;17.10;;;6.00;99.90;;;;;;5037187;28;20063;-65
2022/03/11 07:07:04;;;;;;;27.20;16.80;;;6.30;99.90;;;;;;5046888;28;20044;-65
2022/03/11 07:09:30;;;;;;;26.48;18.08;;;6.20;99.90;;;;;;5033051;28;20356;-65
2022/03/11 07:11:57;;;;;;;24.13;16.30;;;6.30;99.90;;;;;;5035941;28;20502;-64
2022/03/11 07:14:26;;;;;;;28.60;17.13;;;6.30;99.90;;;;;;5033866;28;20045;-64
2022/03/11 07:16:52;;;;;;;24.10;16.83;;;6.40;99.90;;;;;;5036729;28;20073;-64
2022/03/11 07:19:21;;;;;;;26.35;18.17;;;6.30;99.90;;;;;;5037574;28;20103;-64
2022/03/11 07:21:46;;;;;;;22.02;16.23;;;6.30;99.90;;;;;;5048132;28;20047;-64
2022/03/11 07:24:12;;;;;;;24.55;17.50;;;6.40;99.90;;;;;;5046268;28;20401;-64
2022/03/11 07:26:37;;;;;;;25.52;17.45;;;6.40;99.90;;;;;;5037799;28;20037;-64
2022/03/11 07:29:03;;;;;;;29.77;18.20;;;6.40;99.90;;;;;;5042997;28;20044;-64
2022/03/11 07:31:29;;;;;;;26.33;16.60;;;6.50;99.90;;;;;;5035184;28;20116;-64
2022/03/11 07:33:56;;;;;;;24.90;16.60;;;6.40;99.90;;;;;;5044306;28;20481;-64
2022/03/11 07:36:21;;;;;;;27.63;17.65;;;6.50;99.90;;;;;;5036983;28;20068;-64
2022/03/11 07:38:48;;;;;;;24.52;15.85;;;6.70;99.90;;;;;;5045317;28;20153;-63
2022/03/11 07:41:14;;;;;;;25.63;16.00;;;6.60;99.90;;;;;;5044038;28;20091;-64
2022/03/11 07:43:44;;;;;;;23.95;16.25;;;6.60;99.90;;;;;;5029463;28;20072;-63
2022/03/11 07:46:14;;;;;;;25.60;16.45;;;6.70;99.90;;;;;;5035901;28;20036;-63
2022/03/11 07:48:41;;;;;;;21.92;15.68;;;6.70;99.90;;;;;;5041287;28;20065;-66
2022/03/11 07:51:07;;;;;;;23.75;16.70;;;6.90;99.90;;;;;;5040735;28;20055;-66
2022/03/11 07:53:34;;;;;;;26.38;16.17;;;6.70;99.90;;;;;;5031700;28;20084;-64
2022/03/11 07:55:59;;;;;;;26.85;16.95;;;6.70;99.90;;;;;;5027653;28;20927;-64
2022/03/11 07:58:25;;;;;;;25.15;16.67;;;6.80;99.90;;;;;;5036734;28;20084;-64
2022/03/11 08:00:52;;;;;;;23.40;15.90;;;6.90;99.90;;;;;;5043057;28;20489;-64
2022/03/11 08:03:18;;;;;;;25.17;15.82;;;7.30;99.90;;;;;;5034608;28;20041;-65
2022/03/11 08:05:44;;;;;;;23.98;15.85;;;8.20;99.90;;;;;;5048667;28;20049;-65
2022/03/11 08:08:09;;;;;;;22.67;16.50;;;8.60;99.90;;;;;;5033088;28;20048;-65
2022/03/11 08:10:37;;;;;;;20.40;14.27;;;8.90;99.10;;;;;;5028938;28;20626;-65
2022/03/11 08:13:03;;;;;;;20.20;14.57;;;8.80;99.90;;;;;;5034176;28;20055;-65
2022/03/11 08:15:29;;;;;;;23.30;16.27;;;8.80;99.90;;;;;;5030913;28;20046;-65
2022/03/11 08:17:55;;;;;;;24.88;16.20;;;8.60;99.90;;;;;;5028760;28;20132;-65
2022/03/11 08:20:21;;;;;;;30.23;17.30;;;8.30;99.90;;;;;;5035104;28;20461;-66
2022/03/11 08:22:48;;;;;;;20.08;15.00;;;8.10;99.70;;;;;;5049445;28;20049;-65
2022/03/11 08:25:15;;;;;;;22.67;15.70;;;8.00;99.90;;;;;;5047899;28;20550;-66
2022/03/11 08:27:41;;;;;;;22.50;15.18;;;8.00;99.90;;;;;;5037619;28;20040;-66
2022/03/11 08:30:08;;;;;;;24.02;15.65;;;8.00;99.90;;;;;;5031419;28;20140;-66
2022/03/11 08:32:33;;;;;;;25.17;16.48;;;8.00;99.50;;;;;;5026841;28;20555;-66
2022/03/11 08:34:59;;;;;;;27.63;15.52;;;8.00;99.90;;;;;;5046809;28;20045;-66
2022/03/11 08:37:25;;;;;;;23.27;15.48;;;8.00;99.20;;;;;;5036249;28;20097;-66
2022/03/11 08:39:51;;;;;;;24.17;15.88;;;8.00;99.20;;;;;;5028328;28;20394;-66
2022/03/11 08:42:17;;;;;;;24.25;14.80;;;8.10;99.00;;;;;;5037875;28;20033;-66
2022/03/11 08:44:43;;;;;;;19.15;13.75;;;8.10;99.90;;;;;;5042798;28;20517;-66
2022/03/11 08:47:09;;;;;;;25.70;13.93;;;8.20;98.50;;;;;;5026638;28;20086;-66
2022/03/11 08:49:34;;;;;;;23.92;13.60;;;8.30;99.60;;;;;;5028690;28;20516;-65
2022/03/11 08:52:00;;;;;;;20.90;14.10;;;8.50;99.40;;;;;;5042660;28;20072;-64
2022/03/11 08:54:25;;;;;;;20.38;14.82;;;8.40;98.80;;;;;;5037868;28;20061;-65
2022/03/11 08:56:53;;;;;;;24.70;14.20;;;8.50;99.00;;;;;;5037913;28;20098;-65
2022/03/11 08:59:19;;;;;;;22.15;14.45;;;8.50;98.70;;;;;;5039007;28;20555;-65
2022/03/11 09:01:44;;;;;;;20.50;14.38;;;8.50;97.70;;;;;;5042569;28;20049;-65
2022/03/11 09:04:10;;;;;;;27.52;16.45;;;8.50;97.10;;;;;;5048105;28;20045;-65
2022/03/11 09:06:35;;;;;;;26.08;13.95;;;8.50;97.50;;;;;;5031505;28;20049;-64
2022/03/11 09:09:01;;;;;;;24.70;14.90;;;8.50;97.10;;;;;;5054015;28;20044;-65
2022/03/11 09:11:26;;;;;;;22.50;14.80;;;8.50;97.70;;;;;;5032955;28;20493;-65
2022/03/11 09:13:53;;;;;;;20.38;14.75;;;8.60;97.50;;;;;;5035130;28;20377;-65
2022/03/11 09:16:19;;;;;;;26.25;15.20;;;8.60;96.90;;;;;;5041670;28;20622;-65
2022/03/11 09:18:44;;;;;;;21.95;13.88;;;8.70;97.00;;;;;;5044859;28;20418;-65
2022/03/11 09:21:10;;;;;;;21.77;15.10;;;8.60;97.00;;;;;;5029661;28;20045;-65
2022/03/11 09:23:36;;;;;;;27.77;15.75;;;8.70;97.60;;;;;;5032824;28;20547;-65
2022/03/11 09:26:01;;;;;;;22.00;15.32;;;8.70;96.50;;;;;;5040520;28;20496;-65
2022/03/11 09:28:27;;;;;;;23.35;14.38;;;8.80;98.10;;;;;;5046650;28;20052;-65
2022/03/11 09:30:53;;;;;;;22.02;14.93;;;9.10;98.00;;;;;;5047172;28;20045;-65
2022/03/11 09:33:18;;;;;;;23.08;14.85;;;9.90;96.50;;;;;;5037478;28;20048;-65
2022/03/11 09:35:44;;;;;;;23.08;15.10;;;10.50;93.60;;;;;;5038960;28;20048;-65
2022/03/11 09:38:10;;;;;;;26.13;16.08;;;11.10;93.30;;;;;;5035600;28;20046;-65
2022/03/11 09:40:35;;;;;;;22.33;15.63;;;11.70;92.30;;;;;;5027323;28;20099;-65
2022/03/11 09:43:02;;;;;;;24.08;15.07;;;12.20;90.70;;;;;;5027551;28;20100;-65
2022/03/11 09:45:27;;;;;;;27.73;15.68;;;12.50;89.00;;;;;;5027943;28;20033;-65
2022/03/11 09:47:54;;;;;;;21.73;14.57;;;12.60;88.30;;;;;;5027549;28;20048;-65
2022/03/11 09:50:19;;;;;;;30.58;16.70;;;12.90;85.80;;;;;;5038552;28;20496;-65
2022/03/11 09:52:47;;;;;;;20.50;15.43;;;12.70;84.10;;;;;;5036299;28;20049;-65
2022/03/11 09:55:13;;;;;;;25.80;15.75;;;13.20;85.10;;;;;;5046129;28;20469;-65
2022/03/11 09:57:38;;;;;;;21.70;14.45;;;13.10;83.40;;;;;;5041879;28;20041;-65
2022/03/11 10:00:06;;;;;;;19.38;14.88;;;13.50;82.40;;;;;;5030278;28;20053;-65
2022/03/11 10:02:31;;;;;;;22.10;14.73;;;13.30;82.70;;;;;;5031088;28;20088;-65
2022/03/11 10:04:57;;;;;;;22.80;15.15;;;13.60;83.10;;;;;;5031718;28;20041;-65
2022/03/11 10:07:28;;;;;;;17.92;13.55;;;13.20;80.80;;;;;;5029127;28;20540;-65
2022/03/11 10:09:55;;;;;;;20.25;15.27;;;13.40;81.90;;;;;;5039490;28;20051;-65
2022/03/11 10:12:23;;;;;;;21.23;14.48;;;13.40;82.20;;;;;;5040492;28;20045;-65
2022/03/11 10:14:57;;;;;;;19.48;14.25;;;13.40;81.70;;;;;;5032441;28;20081;-65
2022/03/11 10:17:23;;;;;;;21.30;13.90;;;13.20;80.10;;;;;;5030538;28;20052;-65
2022/03/11 10:20:04;;;;;;;23.17;16.55;;;13.20;82.50;;;;;;5033866;28;20073;-63
2022/03/11 10:22:31;;;;;;;21.77;15.13;;;13.00;83.00;;;;;;5043730;28;20044;-64
2022/03/11 10:25:00;;;;;;;21.10;14.23;;;13.10;82.90;;;;;;5045417;28;20049;-63
2022/03/11 10:27:26;;;;;;;20.88;14.55;;;13.20;83.00;;;;;;5041981;28;20042;-63
2022/03/11 10:29:55;;;;;;;20.10;13.70;;;13.20;79.50;;;;;;5033720;28;20086;-65
2022/03/11 10:32:24;;;;;;;21.38;15.60;;;13.10;81.10;;;;;;5042686;28;20501;-64
2022/03/11 10:34:50;;;;;;;18.08;13.57;;;13.10;81.30;;;;;;5035044;28;20037;-63
2022/03/11 10:37:16;;;;;;;23.73;17.27;;;12.90;80.90;;;;;;5030845;28;20050;-64
2022/03/11 10:39:45;;;;;;;23.17;15.60;;;12.90;82.90;;;;;;5038067;28;20068;-65
2022/03/11 10:42:20;;;;;;;21.38;15.23;;;13.10;81.50;;;;;;5044213;28;20045;-65
2022/03/11 10:45:06;;;;;;;22.10;15.55;;;13.00;80.60;;;;;;5033974;28;20045;-64
2022/03/11 10:47:37;;;;;;;19.48;14.50;;;13.10;80.90;;;;;;5030583;28;20099;-64
2022/03/11 10:50:13;;;;;;;19.58;14.57;;;13.10;80.90;;;;;;5034155;28;20064;-63
2022/03/11 10:52:44;;;;;;;20.98;16.13;;;13.20;80.80;;;;;;5033099;28;20049;-63
2022/03/11 10:55:17;;;;;;;21.40;14.63;;;13.20;80.80;;;;;;5038244;28;20378;-63
2022/03/11 10:57:43;;;;;;;21.25;15.05;;;13.20;80.60;;;;;;5048912;28;20056;-65
2022/03/11 11:00:29;;;;;;;18.80;14.65;;;13.20;81.70;;;;;;5042991;28;20793;-63
2022/03/11 11:03:06;;;;;;;21.67;15.45;;;13.30;81.50;;;;;;5043910;28;20416;-64
2022/03/11 11:05:32;;;;;;;21.60;15.15;;;13.30;79.60;;;;;;5031378;28;20045;-65
2022/03/11 11:08:01;;;;;;;27.65;16.33;;;13.20;80.60;;;;;;5029793;28;20037;-66
2022/03/11 11:10:29;;;;;;;23.33;16.65;;;13.20;79.20;;;;;;5035131;28;20082;-65
2022/03/11 11:12:55;;;;;;;25.48;15.05;;;13.30;79.90;;;;;;5042202;28;20214;-65
2022/03/11 11:15:21;;;;;;;25.60;16.63;;;13.40;82.30;;;;;;5036188;28;20040;-65
2022/03/11 11:17:52;;;;;;;26.00;16.35;;;13.40;78.60;;;;;;5041373;28;20042;-65
2022/03/11 11:20:22;;;;;;;21.58;16.10;;;13.60;79.70;;;;;;5047002;28;20098;-65
2022/03/11 11:22:53;;;;;;;24.42;14.93;;;13.70;80.30;;;;;;5034773;28;20045;-65
2022/03/11 11:25:22;;;;;;;23.05;14.82;;;13.90;81.50;;;;;;5028937;28;20592;-65
2022/03/11 11:27:49;;;;;;;22.80;14.73;;;13.90;80.90;;;;;;5028621;28;20416;-65
2022/03/11 11:30:23;;;;;;;20.13;15.13;;;14.00;80.70;;;;;;5035245;28;20128;-66
2022/03/11 11:32:52;;;;;;;23.55;15.13;;;14.30;78.80;;;;;;5049256;28;20041;-65
2022/03/11 11:35:37;;;;;;;21.70;14.65;;;14.40;79.00;;;;;;5037163;28;20053;-65
2022/03/11 11:38:04;;;;;;;23.40;16.52;;;14.50;78.60;;;;;;5030361;28;20575;-65
2022/03/11 11:40:34;;;;;;;22.13;15.93;;;14.70;79.70;;;;;;5030080;28;20392;-65
2022/03/11 11:43:12;;;;;;;21.33;15.35;;;14.70;77.50;;;;;;5030415;28;20057;-65
2022/03/11 11:45:48;;;;;;;23.33;15.45;;;14.90;78.30;;;;;;5048773;28;20049;-65
2022/03/11 11:48:32;;;;;;;21.83;16.05;;;15.00;78.30;;;;;;5049340;28;20412;-65
2022/03/11 11:51:06;;;;;;;28.88;16.88;;;15.00;78.50;;;;;;5042651;28;20059;-66
2022/03/11 11:53:42;;;;;;;20.33;15.55;;;15.10;77.60;;;;;;5037979;28;20448;-66
2022/03/11 11:56:29;;;;;;;28.00;17.67;;;15.10;76.50;;;;;;5037588;28;20135;-66
2022/03/11 11:58:57;;;;;;;26.13;17.45;;;15.30;77.90;;;;;;5031645;28;20049;-66
2022/03/11 12:01:42;;;;;;;21.73;15.57;;;15.30;75.80;;;;;;5033854;28;20040;-66
2022/03/11 12:04:33;;;;;;;22.88;15.13;;;15.70;77.90;;;;;;5027425;28;20132;-66
2022/03/11 12:07:10;;;;;;;24.90;17.63;;;15.70;77.50;;;;;;5044467;28;20072;-66
2022/03/11 12:12:25;;;;;;;21.40;16.25;;;15.90;76.80;;;;;;5049240;28;20187;-66
2022/03/11 12:17:45;;;;;;;25.17;15.35;;;16.20;74.80;;;;;;5026957;28;20053;-66
2022/03/11 12:20:35;;;;;;;21.17;15.90;;;16.20;75.10;;;;;;5028506;28;20077;-66
2022/03/11 12:23:06;;;;;;;23.02;16.77;;;16.00;75.70;;;;;;5026904;28;20041;-66
2022/03/11 12:25:39;;;;;;;23.33;16.48;;;16.30;74.10;;;;;;5028659;28;20136;-66
2022/03/11 12:28:04;;;;;;;23.58;17.42;;;16.50;74.80;;;;;;5029348;28;20048;-66
2022/03/11 12:30:33;;;;;;;23.17;16.70;;;16.60;73.60;;;;;;5045499;28;20049;-66
2022/03/11 12:33:00;;;;;;;31.98;17.23;;;16.80;73.30;;;;;;5042211;28;20057;-66
2022/03/11 12:35:26;;;;;;;21.17;14.90;;;16.70;73.40;;;;;;5028424;28;20046;-66
2022/03/11 12:37:52;;;;;;;30.00;16.35;;;16.70;75.60;;;;;;5046447;28;20033;-66
2022/03/11 12:40:22;;;;;;;21.30;15.57;;;16.60;71.70;;;;;;5047518;28;20124;-66
2022/03/11 12:42:47;;;;;;;23.15;14.13;;;16.70;73.00;;;;;;5048953;28;20056;-65